Time;durP1;ratioP1;P1;durP2;ratioP2;P2;SDS_P1;SDS_P2;PMS_P1;PMS_P2;Temp;Humidity;BMP_temperature;BMP_pressure;BME280_temperature;BME280_humidity;BME280_pressure;Samples;Min_cycle;Max_cycle;Signal;HPM_P1;HPM_P2
2023/09/27 00:09:45;;;;;;;4.72;3.50;;;;;;;24.49;42.38;96583.22;6125611;23;20447;-27
2023/09/27 00:25:37;;;;;;;6.00;3.45;;;;;;;24.20;42.59;96601.28;6124504;23;20037;-27
2023/09/27 00:28:03;;;;;;;4.75;3.88;;;;;;;24.12;43.03;96594.00;6126357;23;20010;-27
2023/09/27 00:40:33;;;;;;;8.75;3.70;;;;;;;24.47;42.09;96602.41;6125601;23;20017;-27
2023/09/27 00:56:52;;;;;;;6.95;3.47;;;;;;;24.39;42.03;96598.66;6125536;23;20021;-27
2023/09/27 01:26:15;;;;;;;10.07;3.83;;;;;;;24.23;42.32;96571.84;6124382;23;20025;-29
2023/09/27 01:28:41;;;;;;;8.45;3.95;;;;;;;24.14;42.62;96575.63;6125931;23;20010;-27
2023/09/27 01:31:07;;;;;;;8.27;3.30;;;;;;;24.39;41.79;96575.72;6125767;23;20010;-28
2023/09/27 01:40:50;;;;;;;8.35;3.70;;;;;;;24.38;41.94;96577.75;6125718;23;20084;-27
2023/09/27 01:56:42;;;;;;;9.02;3.30;;;;;;;24.25;42.16;96572.78;6127171;23;20017;-27
2023/09/27 02:12:36;;;;;;;7.25;3.28;;;;;;;24.19;42.22;96574.09;6126883;23;20110;-26
2023/09/27 02:42:31;;;;;;;5.25;3.15;;;;;;;24.24;42.59;96554.66;6126690;23;20040;-26
2023/09/27 02:58:25;;;;;;;8.98;3.28;;;;;;;24.17;42.51;96557.22;6126574;23;20552;-26
2023/09/27 03:00:52;;;;;;;6.60;3.53;;;;;;;24.13;42.55;96554.72;6126723;23;20073;-27
2023/09/27 03:13:22;;;;;;;7.00;3.13;;;;;;;24.02;42.58;96529.84;6127075;23;20021;-27
2023/09/27 03:15:56;;;;;;;7.63;4.32;;;;;;;24.04;42.85;96537.66;6126426;23;20002;-27
2023/09/27 03:28:26;;;;;;;9.02;3.45;;;;;;;24.12;42.54;96528.28;6124872;23;20084;-26
2023/09/27 03:44:19;;;;;;;8.45;3.42;;;;;;;24.08;43.12;96521.50;6126340;23;20028;-28
2023/09/27 03:57:26;;;;;;;7.57;4.00;;;;;;;24.09;42.83;96518.25;6126314;23;20016;-28
2023/09/27 04:13:18;;;;;;;4.75;3.10;;;;;;;24.16;42.84;96531.53;6125682;23;20087;-28
2023/09/27 04:29:10;;;;;;;6.65;3.80;;;;;;;24.21;43.07;96544.59;6124810;23;20029;-27
2023/09/27 04:45:03;;;;;;;5.70;3.40;;;;;;;24.14;43.65;96545.13;6125719;23;20021;-27
2023/09/27 04:58:10;;;;;;;5.40;3.75;;;;;;;23.95;44.36;96553.31;6125862;23;20017;-28
2023/09/27 05:14:03;;;;;;;6.68;3.58;;;;;;;23.90;44.30;96550.56;6125504;23;20032;-27
2023/09/27 05:29:55;;;;;;;9.02;4.22;;;;;;;24.05;44.31;96561.31;6126296;23;20029;-30
2023/09/27 06:00:21;;;;;;;6.50;3.70;;;;;;;24.04;44.25;96573.66;6127048;23;20017;-27
2023/09/27 06:29:41;;;;;;;7.78;3.72;;;;;;;24.07;44.33;96608.66;6125993;23;20073;-27
2023/09/27 06:32:06;;;;;;;5.90;3.63;;;;;;;24.09;44.41;96608.91;6126726;23;20022;-26
2023/09/27 06:34:32;;;;;;;8.57;3.78;;;;;;;24.29;43.92;96600.25;6126638;23;20016;-27
2023/09/27 06:44:24;;;;;;;9.10;3.90;;;;;;;24.14;44.61;96616.44;6126662;23;20344;-28
2023/09/27 07:00:23;;;;;;;6.68;4.10;;;;;;;24.27;44.32;96631.25;6126864;23;20017;-26
2023/09/27 07:16:26;;;;;;;13.73;4.45;;;;;;;24.31;44.40;96639.28;6126102;23;20061;-29
2023/09/27 07:47:06;;;;;;;8.88;4.03;;;;;;;24.32;44.14;96644.31;6126561;23;20069;-27
2023/09/27 08:00:15;;;;;;;5.93;3.90;;;;;;;24.34;44.19;96644.56;6126119;23;20032;-28
2023/09/27 08:15:49;;;;;;;6.13;3.75;;;;;;;24.60;43.87;96643.41;6126092;23;20017;-27
2023/09/27 08:31:41;;;;;;;5.97;3.80;;;;;;;24.85;43.09;96647.72;6124493;23;20080;-29
2023/09/27 08:47:34;;;;;;;8.90;4.72;;;;;;;25.05;42.73;96638.28;6125710;23;20335;-29
2023/09/27 09:00:51;;;;;;;8.63;4.55;;;;;;;25.10;42.45;96623.56;6128956;23;20379;-27
2023/09/27 09:16:51;;;;;;;7.90;4.70;;;;;;;25.01;42.40;96626.69;6128975;23;20017;-29
2023/09/27 09:32:50;;;;;;;7.47;5.13;;;;;;;25.13;42.23;96638.44;6127443;23;20101;-27
2023/09/27 10:02:20;;;;;;;9.27;4.65;;;;;;;25.34;41.03;96623.63;6128467;23;20475;-27
2023/09/27 10:18:21;;;;;;;6.80;4.05;;;;;;;25.27;39.88;96604.75;6126937;23;20016;-27
2023/09/27 10:48:19;;;;;;;7.45;4.25;;;;;;;25.58;38.63;96588.78;6126907;23;19940;-27
2023/09/27 11:04:12;;;;;;;7.72;4.35;;;;;;;25.66;38.42;96584.16;6126293;23;20388;-26
2023/09/27 11:17:29;;;;;;;7.25;4.22;;;;;;;25.60;38.56;96575.09;6126761;23;20336;-27
2023/09/27 11:33:30;;;;;;;9.52;4.82;;;;;;;25.85;38.23;96559.16;6124928;23;20073;-27
2023/09/27 11:35:56;;;;;;;8.80;5.10;;;;;;;25.81;38.13;96562.25;6126575;23;20010;-27
2023/09/27 11:48:32;;;;;;;11.10;5.18;;;;;;;25.75;38.06;96545.66;6126358;23;20061;-27
2023/09/27 12:04:23;;;;;;;8.20;4.25;;;;;;;25.81;38.51;96536.50;6126082;23;20399;-26
2023/09/27 12:33:42;;;;;;;8.75;5.65;;;;;;;25.81;38.88;96517.06;6124363;23;20361;-28
2023/09/27 12:36:08;;;;;;;6.72;4.65;;;;;;;25.79;38.86;96516.81;6126108;23;20010;-26
2023/09/27 12:38:33;;;;;;;8.90;4.80;;;;;;;25.82;39.11;96513.00;6126291;23;20002;-27
2023/09/27 12:48:28;;;;;;;9.68;4.80;;;;;;;25.74;38.47;96524.69;6125628;23;20041;-27
2023/09/27 13:04:20;;;;;;;9.43;4.07;;;;;;;25.85;37.62;96512.69;6125685;23;20061;-28
2023/09/27 13:20:18;;;;;;;6.50;3.80;;;;;;;25.88;36.53;96488.66;6125465;23;20189;-27
2023/09/27 13:36:17;;;;;;;5.20;3.75;;;;;;;25.91;36.24;96482.06;6125296;23;20048;-27
2023/09/27 13:49:09;;;;;;;8.05;4.10;;;;;;;25.92;36.25;96467.63;6127210;23;20040;-26
2023/09/27 14:05:01;;;;;;;8.30;4.47;;;;;;;26.00;37.50;96462.19;6127019;23;20016;-28
2023/09/27 14:20:53;;;;;;;7.00;3.92;;;;;;;25.95;38.33;96449.91;6127034;23;20017;-27
2023/09/27 14:51:03;;;;;;;9.25;3.67;;;;;;;25.84;39.70;96438.94;6126761;23;20052;-26
2023/09/27 15:06:55;;;;;;;6.10;3.90;;;;;;;26.20;39.24;96444.22;6126592;23;20021;-27
2023/09/27 15:20:13;;;;;;;9.02;4.05;;;;;;;26.08;39.10;96444.41;6126449;23;20069;-26
2023/09/27 15:22:39;;;;;;;7.03;3.75;;;;;;;26.24;38.83;96447.41;6126493;23;20424;-26
2023/09/27 15:35:22;;;;;;;6.72;3.53;;;;;;;26.25;39.34;96448.91;6125622;23;20053;-27
2023/09/27 15:51:28;;;;;;;5.53;3.50;;;;;;;26.11;38.87;96432.19;6126413;23;20068;-27
2023/09/27 16:07:20;;;;;;;7.57;3.55;;;;;;;26.28;38.50;96431.22;6125789;23;20060;-27
2023/09/27 16:36:40;;;;;;;7.65;4.15;;;;;;;26.45;38.75;96434.47;6124022;23;20033;-27
2023/09/27 16:52:33;;;;;;;7.13;3.20;;;;;;;26.37;39.75;96453.03;6125467;23;20017;-27
2023/09/27 17:08:26;;;;;;;6.10;3.50;;;;;;;26.42;40.11;96466.09;6125764;23;20013;-26
2023/09/27 17:21:34;;;;;;;9.13;4.93;;;;;;;26.25;40.11;96454.47;6127790;23;20380;-27
2023/09/27 17:23:59;;;;;;;12.98;4.88;;;;;;;26.17;40.61;96454.34;6127488;23;20002;-27
2023/09/27 17:36:55;;;;;;;9.95;5.00;;;;;;;26.08;40.66;96463.09;6126277;23;20029;-26
2023/09/27 17:39:21;;;;;;;9.65;5.00;;;;;;;26.23;40.64;96468.91;6098306;23;20014;-27
2023/09/27 17:51:55;;;;;;;7.88;4.95;;;;;;;26.23;40.60;96473.72;6097974;23;20029;-27
2023/09/27 18:07:48;;;;;;;7.15;4.97;;;;;;;25.92;41.46;96475.97;6097630;23;20378;-28
2023/09/27 18:23:42;;;;;;;7.75;4.85;;;;;;;25.75;41.30;96472.66;6097801;23;20033;-26
2023/09/27 18:26:12;;;;;;;8.00;4.47;;;;;;;25.77;41.44;96467.34;6097982;23;20006;-27
2023/09/27 18:38:42;;;;;;;9.48;4.63;;;;;;;25.80;41.19;96474.63;6120580;23;20340;-27
2023/09/27 18:54:34;;;;;;;9.77;4.28;;;;;;;25.62;41.33;96484.47;6126962;23;20021;-26
2023/09/27 19:07:45;;;;;;;6.95;3.83;;;;;;;25.66;41.10;96487.69;6126922;23;20017;-27
2023/09/27 19:23:39;;;;;;;11.07;4.03;;;;;;;25.61;40.90;96504.44;6126444;23;20025;-27
2023/09/27 19:39:31;;;;;;;9.63;3.78;;;;;;;25.40;40.03;96520.81;6124774;23;20049;-25
2023/09/27 19:41:57;;;;;;;7.53;3.88;;;;;;;25.28;40.02;96516.69;6126554;23;20456;-27
2023/09/27 19:44:22;;;;;;;5.30;3.75;;;;;;;25.53;39.66;96514.59;6126637;23;20006;-27
2023/09/27 19:53:31;;;;;;;9.15;3.97;;;;;;;25.59;38.99;96506.97;6126236;23;20037;-27
2023/09/27 20:09:24;;;;;;;9.32;3.60;;;;;;;25.29;38.96;96509.84;6126329;23;20013;-27
2023/09/27 20:25:16;;;;;;;5.25;3.38;;;;;;;25.55;38.33;96514.84;6125872;23;20017;-27
2023/09/27 20:41:20;;;;;;;4.90;3.30;;;;;;;25.30;38.57;96520.44;6096484;23;20120;-27
2023/09/27 20:53:59;;;;;;;8.93;3.80;;;;;;;25.33;38.49;96513.84;6096160;23;20017;-28
2023/09/27 21:09:53;;;;;;;7.47;3.58;;;;;;;25.48;37.73;96512.63;6099700;23;20018;-26
2023/09/27 21:12:18;;;;;;;7.63;3.10;;;;;;;25.34;37.78;96515.34;6096433;23;20142;-26
2023/09/27 21:24:48;;;;;;;7.28;3.30;;;;;;;25.37;37.77;96513.53;6096248;23;20069;-27
2023/09/27 21:40:40;;;;;;;8.40;3.10;;;;;;;25.17;37.82;96500.16;6117297;23;20471;-27
2023/09/27 21:56:32;;;;;;;7.68;3.45;;;;;;;25.08;37.45;96501.28;6125909;23;20016;-27
2023/09/27 22:09:49;;;;;;;6.95;3.25;;;;;;;24.93;37.72;96485.03;6127016;23;20021;-26
2023/09/27 22:25:43;;;;;;;5.07;2.83;;;;;;;25.18;37.29;96491.31;6127000;23;20111;-27
2023/09/27 22:41:39;;;;;;;7.43;3.00;;;;;;;24.97;37.50;96481.97;6125809;23;20159;-27
2023/09/27 22:44:07;;;;;;;6.45;2.88;;;;;;;24.90;37.89;96477.72;6127226;23;20065;-26
2023/09/27 22:46:32;;;;;;;5.88;3.28;;;;;;;24.98;37.47;96478.66;6127305;23;20001;-27
2023/09/27 22:55:57;;;;;;;4.88;3.03;;;;;;;25.01;37.74;96477.63;6126709;23;19975;-27
2023/09/27 23:12:15;;;;;;;6.00;3.10;;;;;;;25.00;37.68;96473.34;6126619;23;20089;-27
2023/09/27 23:15:37;;;;;;;5.53;3.10;;;;;;;24.94;38.02;96460.81;6126425;23;20021;-27
2023/09/27 23:27:31;;;;;;;7.78;3.40;;;;;;;24.98;37.61;96466.81;5980718;24;20015;-30
2023/09/27 23:29:56;;;;;;;7.10;3.05;;;;;;;24.78;38.11;96470.03;5980678;24;20008;-27
2023/09/27 23:32:29;;;;;;;9.63;3.08;;;;;;;24.88;37.90;96471.19;5980831;24;20019;-27
2023/09/27 23:41:55;;;;;;;6.63;3.20;;;;;;;25.08;37.92;96462.41;5979743;24;20034;-27
2023/09/27 23:57:48;;;;;;;7.53;3.03;;;;;;;24.82;37.46;96470.50;6094209;23;20073;-27
